createdAt,value
2018-03-08T00:01:17.634Z,73.94
2018-03-08T00:03:46.696Z,73.54
2018-03-08T00:06:15.837Z,73.51
2018-03-08T00:08:44.717Z,74.16
2018-03-08T00:11:14.995Z,75.03
2018-03-08T00:13:44.997Z,75.47
2018-03-08T00:16:13.965Z,75.56
2018-03-08T00:18:42.634Z,76.54
2018-03-08T00:21:11.816Z,76.59
2018-03-08T00:23:41.188Z,77.82
2018-03-08T00:26:10.102Z,77.76
2018-03-08T00:28:40.240Z,77.61
2018-03-08T00:31:09.012Z,77.20
2018-03-08T00:33:38.107Z,77.99
2018-03-08T00:36:08.358Z,78.27
2018-03-08T00:38:37.040Z,78.52
2018-03-08T00:41:05.603Z,77.64
2018-03-08T00:46:27.169Z,77.26
2018-03-08T00:48:55.900Z,77.39
2018-03-08T00:51:24.873Z,77.73
2018-03-08T00:53:53.627Z,77.24
2018-03-08T00:56:22.208Z,77.48
2018-03-08T00:58:50.742Z,78.19
2018-03-08T01:01:21.135Z,77.94
2018-03-08T01:03:49.684Z,77.65
2018-03-08T01:06:18.394Z,77.94
2018-03-08T01:08:47.312Z,77.98
2018-03-08T01:11:15.968Z,78.30
2018-03-08T01:13:44.486Z,78.74
2018-03-08T01:16:13.584Z,78.70
2018-03-08T01:21:18.154Z,78.86
2018-03-08T01:23:46.938Z,79.21
2018-03-08T01:26:16.930Z,79.32
2018-03-08T01:28:45.530Z,78.49
2018-03-08T01:31:14.288Z,78.97
2018-03-08T01:33:43.768Z,79.07
2018-03-08T01:36:21.391Z,79.73
2018-03-08T01:38:50.091Z,79.77
2018-03-08T01:41:20.170Z,79.37
2018-03-08T01:43:48.827Z,79.69
2018-03-08T01:46:17.381Z,80.44
2018-03-08T01:48:45.902Z,80.40
2018-03-08T01:51:16.189Z,80.39
2018-03-08T01:53:44.796Z,80.52
2018-03-08T01:56:13.482Z,80.93
2018-03-08T01:58:42.112Z,80.90
2018-03-08T02:01:11.037Z,81.80
2018-03-08T02:03:39.563Z,81.60
2018-03-08T02:06:08.378Z,80.64
2018-03-08T02:08:37.001Z,80.79
2018-03-08T02:11:07.145Z,80.61
2018-03-08T02:13:35.728Z,81.14
2018-03-08T05:47:09.786Z,84.44
2018-03-08T05:49:39.626Z,85.16
2018-03-08T05:52:09.682Z,85.66
2018-03-08T05:54:46.661Z,84.63
2018-03-08T05:57:16.369Z,84.00
2018-03-08T05:59:46.225Z,84.14
2018-03-08T06:02:15.940Z,83.96
2018-03-08T06:04:46.272Z,83.91
2018-03-08T06:07:15.870Z,84.23
2018-03-08T06:09:45.722Z,84.09
2018-03-08T06:12:15.582Z,84.48
2018-03-08T06:14:45.269Z,84.23
2018-03-08T06:17:14.751Z,84.30
2018-03-08T06:19:44.229Z,84.29
2018-03-08T06:22:13.983Z,84.18
2018-03-08T06:24:43.720Z,84.30
2018-03-08T06:27:13.412Z,84.59
2018-03-08T06:29:42.818Z,84.57
2018-03-08T06:32:12.338Z,84.70
2018-03-08T06:34:41.731Z,84.38
2018-03-08T06:37:11.312Z,84.24
2018-03-08T06:39:42.277Z,83.75
2018-03-08T06:42:11.823Z,83.96
2018-03-08T06:44:41.245Z,83.51
2018-03-08T06:47:12.914Z,82.88
2018-03-08T06:49:42.444Z,81.86
2018-03-08T06:52:13.061Z,81.25
2018-03-08T06:54:42.650Z,80.94
2018-03-08T06:57:12.143Z,80.52
2018-03-08T06:59:41.588Z,80.38
2018-03-08T07:02:11.344Z,78.92
2018-03-08T07:04:41.002Z,78.30
2018-03-08T07:07:12.618Z,77.84
2018-03-08T07:09:42.040Z,78.71
2018-03-08T07:12:11.515Z,76.23
2018-03-08T07:14:41.151Z,75.30
2018-03-08T07:17:10.822Z,76.32
2018-03-08T07:19:42.841Z,75.11
2018-03-08T07:22:13.050Z,75.36
2018-03-08T07:24:43.537Z,74.75
2018-03-08T07:27:12.895Z,74.06
2018-03-08T07:29:42.342Z,72.36
2018-03-08T07:32:11.921Z,68.97
2018-03-08T07:34:42.797Z,65.51
2018-03-08T07:37:14.237Z,64.37
2018-03-08T07:39:43.715Z,63.55
2018-03-08T07:42:13.071Z,62.74
2018-03-08T07:44:42.559Z,60.09
2018-03-08T07:47:12.335Z,59.21
2018-03-08T07:49:42.994Z,60.50
2018-03-08T07:52:12.560Z,59.33
2018-03-08T07:54:41.905Z,60.40
2018-03-08T07:59:47.555Z,61.00
2018-03-08T08:02:16.974Z,59.70
2018-03-08T08:05:00.867Z,56.56
2018-03-08T08:09:41.150Z,55.44
2018-03-08T08:12:10.470Z,52.47
2018-03-08T08:14:39.786Z,51.26
2018-03-08T08:17:09.333Z,49.64
2018-03-08T08:19:38.638Z,52.62
2018-03-08T08:22:08.241Z,53.96
2018-03-08T08:24:38.967Z,53.00
2018-03-08T08:27:08.842Z,51.81
2018-03-08T08:29:39.593Z,49.08
2018-03-08T08:32:09.392Z,48.46
2018-03-08T08:34:38.900Z,51.22
2018-03-08T08:37:08.761Z,49.36
2018-03-08T08:39:38.058Z,50.21
2018-03-08T08:42:08.545Z,49.15
2018-03-08T08:44:38.160Z,48.36
2018-03-08T08:47:08.169Z,49.03
2018-03-08T08:49:39.332Z,47.63
2018-03-08T08:52:09.197Z,46.76
2018-03-08T08:54:40.565Z,47.56
2018-03-08T08:57:10.110Z,45.01
2018-03-08T08:59:39.299Z,43.70
2018-03-08T09:02:09.205Z,42.98
2018-03-08T09:04:39.807Z,42.21
2018-03-08T09:07:09.321Z,40.73
2018-03-08T09:10:22.084Z,41.02
2018-03-08T09:12:51.713Z,39.98
2018-03-08T09:15:21.028Z,40.09
2018-03-08T09:17:50.509Z,42.32
2018-03-08T09:20:19.575Z,41.31
2018-03-08T09:22:48.926Z,40.23
2018-03-08T09:25:18.374Z,40.41
2018-03-08T09:27:47.929Z,38.12
2018-03-08T09:30:17.646Z,38.24
2018-03-08T09:32:47.253Z,35.96
2018-03-08T09:35:19.582Z,38.86
2018-03-08T09:37:49.131Z,41.01
2018-03-08T09:40:18.402Z,38.94
2018-03-08T09:42:47.592Z,39.44
2018-03-08T09:45:17.160Z,38.95
2018-03-08T09:47:46.527Z,36.85
2018-03-08T09:50:15.860Z,39.45
2018-03-08T09:52:45.433Z,40.52
2018-03-08T09:55:14.614Z,42.11
2018-03-08T09:57:43.945Z,42.66
2018-03-08T10:00:14.545Z,42.36
2018-03-08T10:02:44.271Z,40.78
2018-03-08T10:05:13.587Z,41.26
2018-03-08T10:07:43.092Z,43.41
2018-03-08T10:10:12.861Z,45.47
2018-03-08T10:12:42.177Z,47.06
2018-03-08T10:15:11.700Z,47.27
2018-03-08T10:17:40.804Z,46.72
2018-03-08T10:20:10.383Z,47.52
2018-03-08T10:22:40.299Z,46.08
2018-03-08T10:25:10.222Z,46.85
2018-03-08T10:27:40.745Z,47.10
2018-03-08T10:30:11.105Z,47.83
2018-03-08T10:32:40.434Z,47.24
2018-03-08T10:35:10.207Z,47.59
2018-03-08T10:37:40.019Z,48.66
2018-03-08T10:40:10.093Z,48.13
2018-03-08T10:42:44.893Z,47.88
2018-03-08T10:45:08.965Z,48.26
2018-03-08T10:47:38.088Z,47.38
2018-03-08T10:50:07.595Z,47.25
2018-03-08T10:52:36.678Z,46.41
2018-03-08T10:55:05.819Z,47.15
2018-03-08T10:57:34.924Z,47.23
2018-03-08T11:00:04.284Z,47.18
2018-03-08T11:02:34.994Z,46.90
2018-03-08T11:05:04.347Z,47.99
2018-03-08T11:07:33.408Z,48.36
2018-03-08T11:10:02.573Z,48.49
2018-03-08T11:12:32.893Z,47.87
2018-03-08T11:15:02.083Z,48.33
2018-03-08T11:17:31.119Z,48.15
2018-03-08T11:20:00.114Z,47.70
2018-03-08T11:22:29.769Z,46.78
2018-03-08T11:24:59.040Z,45.88
2018-03-08T11:27:28.092Z,44.96
2018-03-08T11:29:57.430Z,44.59
2018-03-08T11:32:28.642Z,44.00
2018-03-08T11:34:57.866Z,43.13
2018-03-08T11:37:26.882Z,42.29
2018-03-08T11:39:55.963Z,41.98
2018-03-08T11:42:25.730Z,42.24
2018-03-08T11:44:54.689Z,42.28
2018-03-08T11:47:24.741Z,42.44
2018-03-08T11:49:53.067Z,42.03
2018-03-08T11:52:22.410Z,41.53
2018-03-08T11:54:51.656Z,40.63
2018-03-08T11:57:21.048Z,40.27
2018-03-08T11:59:50.277Z,40.30
2018-03-08T12:02:19.287Z,39.74
2018-03-08T12:04:48.365Z,39.74
2018-03-08T12:07:17.575Z,39.47
2018-03-08T12:09:46.748Z,38.81
2018-03-08T12:12:16.127Z,38.03
2018-03-08T12:14:45.191Z,37.79
2018-03-08T12:17:14.247Z,37.44
2018-03-08T12:19:43.346Z,37.44
2018-03-08T12:22:12.774Z,36.65
2018-03-08T12:24:41.985Z,37.37
2018-03-08T12:27:11.176Z,36.64
2018-03-08T12:29:40.382Z,35.48
2018-03-08T12:32:12.007Z,36.17
2018-03-08T12:34:41.116Z,35.56
2018-03-08T12:37:11.163Z,35.19
2018-03-08T12:39:40.446Z,35.32
2018-03-08T12:42:10.202Z,34.39
2018-03-08T12:44:50.575Z,33.76
2018-03-08T12:47:20.301Z,32.11
2018-03-08T12:49:49.487Z,32.22
2018-03-08T12:52:18.796Z,32.32
2018-03-08T12:54:47.838Z,31.30
2018-03-08T12:57:16.914Z,30.89
2018-03-08T12:59:46.314Z,31.10
2018-03-08T13:02:15.472Z,31.29
2018-03-08T13:04:45.243Z,31.27
2018-03-08T13:07:14.287Z,31.09
2018-03-08T13:09:43.668Z,32.64
2018-03-08T13:12:12.792Z,32.85
2018-03-08T13:14:41.764Z,33.24
2018-03-08T13:17:10.862Z,33.37
2018-03-08T13:19:40.486Z,31.53
2018-03-08T13:22:10.271Z,28.85
2018-03-08T13:24:39.448Z,30.55
2018-03-08T13:27:09.226Z,31.17
2018-03-08T13:29:38.776Z,31.42
2018-03-08T13:32:08.185Z,30.04
2018-03-08T13:34:38.593Z,30.48
2018-03-08T13:37:08.736Z,32.10
2018-03-08T13:39:37.822Z,31.87
2018-03-08T13:42:07.078Z,32.61
2018-03-08T13:44:36.083Z,31.45
2018-03-08T13:47:05.297Z,30.98
2018-03-08T13:49:39.022Z,31.67
2018-03-08T13:52:08.585Z,33.10
2018-03-08T13:54:37.768Z,31.21
2018-03-08T13:57:07.232Z,31.06
2018-03-08T13:59:36.160Z,30.67
2018-03-08T14:02:06.042Z,31.25
2018-03-08T14:04:35.119Z,31.53
2018-03-08T14:07:06.894Z,31.54
2018-03-08T14:09:35.979Z,30.11
2018-03-08T14:12:05.664Z,29.82
2018-03-08T14:14:34.889Z,29.30
2018-03-08T14:17:04.633Z,28.27
2018-03-08T14:19:33.733Z,28.15
2018-03-08T14:22:02.911Z,29.01
2018-03-08T14:24:31.970Z,29.70
2018-03-08T14:27:05.762Z,29.45
2018-03-08T14:29:35.280Z,29.46
2018-03-08T14:32:07.951Z,28.43
2018-03-08T14:34:37.072Z,29.58
2018-03-08T14:37:06.213Z,29.91
2018-03-08T14:39:35.227Z,31.26
2018-03-08T14:42:04.319Z,31.43
2018-03-08T14:44:33.545Z,31.98
2018-03-08T14:47:02.617Z,32.51
2018-03-08T14:49:31.797Z,33.34
2018-03-08T14:52:00.835Z,32.10
2018-03-08T14:54:29.886Z,32.77
2018-03-08T14:57:06.877Z,33.36
2018-03-08T14:59:49.439Z,33.55
2018-03-08T15:02:19.740Z,33.33
2018-03-08T15:04:48.981Z,33.63
2018-03-08T15:07:18.082Z,33.47
2018-03-08T15:09:47.165Z,33.70
2018-03-08T15:12:17.686Z,33.88
2018-03-08T15:14:46.602Z,34.05
2018-03-08T15:17:15.741Z,35.77
2018-03-08T15:19:44.744Z,34.38
2018-03-08T15:22:14.151Z,33.84
2018-03-08T15:24:43.312Z,35.07
2018-03-08T15:27:12.457Z,31.25
2018-03-08T15:29:42.444Z,30.39
2018-03-08T15:32:11.845Z,30.50
2018-03-08T15:34:40.880Z,30.26
2018-03-08T15:37:10.091Z,29.19
2018-03-08T15:39:39.018Z,29.42
2018-03-08T15:42:08.587Z,29.55
2018-03-08T15:44:38.383Z,29.11
2018-03-08T15:47:07.577Z,29.59
2018-03-08T15:49:36.725Z,29.75
2018-03-08T15:52:05.765Z,29.86
2018-03-08T15:54:34.739Z,29.98
2018-03-08T15:57:03.848Z,30.15
2018-03-08T15:59:33.141Z,29.90
2018-03-08T16:02:02.239Z,30.03
2018-03-08T16:04:31.437Z,30.48
2018-03-08T16:07:14.643Z,30.47
2018-03-08T16:09:59.562Z,31.07
2018-03-08T16:12:28.700Z,31.55
2018-03-08T16:14:58.293Z,32.06
2018-03-08T16:17:27.551Z,31.71
2018-03-08T16:19:56.549Z,32.06
2018-03-08T16:22:25.615Z,32.83
2018-03-08T16:24:55.908Z,32.63
2018-03-08T16:27:24.979Z,32.79
2018-03-08T16:29:54.086Z,33.03
2018-03-08T16:32:23.286Z,33.37
2018-03-08T16:34:52.731Z,33.66
2018-03-08T16:37:22.306Z,33.43
2018-03-08T16:39:51.366Z,33.80
2018-03-08T16:43:12.993Z,34.00
2018-03-08T16:45:42.757Z,36.01
2018-03-08T16:48:12.306Z,36.52
2018-03-08T16:50:41.245Z,37.86
2018-03-08T16:53:10.555Z,38.36
2018-03-08T16:55:40.160Z,39.84
2018-03-08T16:58:09.728Z,39.86
2018-03-08T17:00:38.963Z,40.76
2018-03-08T17:03:08.674Z,41.25
2018-03-08T17:05:37.836Z,41.15
2018-03-08T17:08:06.890Z,42.60
2018-03-08T17:10:36.138Z,41.83
2018-03-08T17:13:05.467Z,42.99
2018-03-08T17:15:34.587Z,43.79
2018-03-08T17:18:03.788Z,43.37
2018-03-08T17:20:40.464Z,45.27
2018-03-08T17:23:10.001Z,45.84
2018-03-08T17:25:39.439Z,45.22
2018-03-08T17:28:10.133Z,45.41
2018-03-08T17:30:39.403Z,44.65
2018-03-08T17:33:08.800Z,46.26
2018-03-08T17:35:39.214Z,47.04
2018-03-08T17:38:09.139Z,47.06
2018-03-08T17:40:38.353Z,48.14
2018-03-08T17:43:07.443Z,48.80
2018-03-08T17:45:36.544Z,48.70
2018-03-08T17:48:05.911Z,49.30
2018-03-08T17:50:36.527Z,49.44
2018-03-08T17:53:05.561Z,49.42
2018-03-08T17:55:34.670Z,49.28
2018-03-08T17:58:03.849Z,49.96
2018-03-08T18:00:34.833Z,50.07
2018-03-08T18:03:04.317Z,50.67
2018-03-08T18:05:33.444Z,51.47
2018-03-08T18:08:02.569Z,51.19
2018-03-08T18:10:32.124Z,51.77
2018-03-08T18:13:01.076Z,51.64
2018-03-08T18:15:30.274Z,50.66
2018-03-08T18:17:59.458Z,51.27
2018-03-08T18:20:28.996Z,51.65
2018-03-08T18:22:58.596Z,52.08
2018-03-08T18:25:27.870Z,52.67
2018-03-08T18:27:57.170Z,53.29
2018-03-08T18:30:26.275Z,53.65
2018-03-08T18:32:55.661Z,53.50
2018-03-08T18:35:24.647Z,52.97
2018-03-08T18:37:54.050Z,53.75
2018-03-08T18:40:23.105Z,54.73
2018-03-08T18:42:52.804Z,55.24
2018-03-08T18:45:22.058Z,55.79
2018-03-08T18:47:51.126Z,56.05
2018-03-08T18:50:21.420Z,56.38
2018-03-08T18:52:50.490Z,56.79
2018-03-08T18:55:20.010Z,56.90
2018-03-08T18:57:49.083Z,57.22
2018-03-08T19:00:18.374Z,57.79
2018-03-08T19:02:48.379Z,57.93
2018-03-08T19:05:17.710Z,56.83
2018-03-08T19:07:47.479Z,57.86
2018-03-08T19:10:17.381Z,58.55
2018-03-08T19:12:47.358Z,58.05
2018-03-08T19:18:10.658Z,58.82
2018-03-08T19:20:56.795Z,59.31
2018-03-08T19:23:26.025Z,59.35
2018-03-08T19:25:56.898Z,59.18
2018-03-08T19:28:26.376Z,58.82
2018-03-08T19:34:04.076Z,57.81
2018-03-08T19:36:34.174Z,58.75
2018-03-08T19:39:14.349Z,58.94
2018-03-08T19:41:44.025Z,58.31
2018-03-08T19:44:13.555Z,58.46
2018-03-08T19:46:42.884Z,58.65
2018-03-08T19:49:13.185Z,58.25
2018-03-08T19:51:42.728Z,56.64
2018-03-08T19:54:16.164Z,56.42
2018-03-08T19:56:46.499Z,56.07
2018-03-08T19:59:15.847Z,55.99
2018-03-08T20:01:45.082Z,56.06
2018-03-08T20:04:16.897Z,54.93
2018-03-08T20:06:47.813Z,55.09
2018-03-08T20:09:17.471Z,54.69
2018-03-08T20:11:47.508Z,55.07
2018-03-08T20:14:19.779Z,54.06
2018-03-08T20:16:49.486Z,54.07
2018-03-08T20:19:19.124Z,53.30
2018-03-08T20:21:48.492Z,53.99
2018-03-08T20:24:17.717Z,54.06
2018-03-08T20:26:48.133Z,53.49
2018-03-08T20:29:17.716Z,54.26
2018-03-08T20:31:47.320Z,53.62
2018-03-08T20:34:21.301Z,53.50
2018-03-08T20:36:50.933Z,55.72
2018-03-08T20:39:21.002Z,55.02
2018-03-08T20:41:50.945Z,54.45
2018-03-08T20:44:21.772Z,52.95
2018-03-08T20:46:51.529Z,53.78
2018-03-08T20:49:21.430Z,54.56
2018-03-08T20:51:51.194Z,54.36
2018-03-08T20:54:21.658Z,54.34
2018-03-08T20:56:51.718Z,54.92
2018-03-08T20:59:21.568Z,54.28
2018-03-08T21:07:03.667Z,53.80
2018-03-08T21:09:34.890Z,53.72
2018-03-08T21:12:04.418Z,53.02
2018-03-08T21:14:34.311Z,51.77
2018-03-08T21:19:57.038Z,50.97
2018-03-08T21:22:33.893Z,51.71
2018-03-08T21:25:03.876Z,51.60
2018-03-08T21:27:34.144Z,52.24
2018-03-08T21:30:05.389Z,51.44
2018-03-08T21:32:34.949Z,52.33
2018-03-08T21:35:04.322Z,51.37
2018-03-08T21:37:33.303Z,51.43
2018-03-08T21:40:03.321Z,51.12
2018-03-08T21:42:33.812Z,51.46
2018-03-08T21:45:02.918Z,51.69
2018-03-08T21:47:32.055Z,52.50
2018-03-08T21:50:01.222Z,51.42
2018-03-08T21:52:30.387Z,50.72
2018-03-08T21:55:25.241Z,50.18
2018-03-08T22:01:47.151Z,49.95
2018-03-08T22:07:25.004Z,51.37
2018-03-08T22:11:04.463Z,50.19
2018-03-08T22:13:33.572Z,49.52
2018-03-08T22:16:04.907Z,50.48
2018-03-08T22:18:33.817Z,50.07
2018-03-08T22:21:03.010Z,51.23
2018-03-08T22:23:32.065Z,49.05
2018-03-08T22:26:11.857Z,51.36
2018-03-08T22:28:45.030Z,49.08
2018-03-08T22:31:14.330Z,47.59
2018-03-08T22:33:44.905Z,47.01
2018-03-08T22:36:14.207Z,48.65
2018-03-08T22:38:43.582Z,50.47
2018-03-08T22:41:12.736Z,51.79
2018-03-08T22:43:43.359Z,52.50
2018-03-08T22:46:12.967Z,56.25
2018-03-08T22:48:43.124Z,59.57
2018-03-08T22:51:12.586Z,63.09
2018-03-08T22:53:43.735Z,65.02
2018-03-08T22:56:12.992Z,66.49
2018-03-08T22:58:42.191Z,67.03
2018-03-08T23:01:16.568Z,67.52
2018-03-08T23:03:45.914Z,68.26
2018-03-08T23:08:43.701Z,68.58
2018-03-08T23:11:13.075Z,68.66
2018-03-08T23:13:42.521Z,69.09
2018-03-08T23:16:11.975Z,69.07
2018-03-08T23:18:41.642Z,69.49
2018-03-08T23:21:40.303Z,69.61
2018-03-08T23:24:22.012Z,69.72
2018-03-08T23:26:51.377Z,69.66
2018-03-08T23:29:21.703Z,69.77
2018-03-08T23:31:51.292Z,69.87
2018-03-08T23:34:20.666Z,69.91
2018-03-08T23:36:50.114Z,69.84
2018-03-08T23:39:21.816Z,69.91
2018-03-08T23:41:51.363Z,69.92
2018-03-08T23:44:22.155Z,70.58
2018-03-08T23:46:51.445Z,70.64
2018-03-08T23:49:20.990Z,70.58
2018-03-08T23:51:50.616Z,70.30
2018-03-08T23:54:20.074Z,70.66
2018-03-08T23:56:50.046Z,70.70
2018-03-08T23:59:19.474Z,70.92
